createdAt,value
2023-05-11T00:01:24.815Z,5.24
2023-05-11T00:03:52.647Z,5.25
2023-05-11T00:06:19.723Z,5.26
2023-05-11T00:08:46.897Z,5.26
2023-05-11T00:11:13.939Z,5.26
2023-05-11T00:13:40.885Z,5.28
2023-05-11T00:16:07.944Z,5.31
2023-05-11T00:18:34.983Z,5.33
2023-05-11T00:21:02.477Z,5.33
2023-05-11T00:23:29.572Z,5.31
2023-05-11T00:25:56.525Z,5.32
2023-05-11T00:28:23.562Z,5.35
2023-05-11T00:30:50.540Z,5.38
2023-05-11T00:33:18.379Z,5.42
2023-05-11T00:35:45.671Z,5.46
2023-05-11T00:38:12.590Z,5.49
2023-05-11T00:40:39.543Z,5.52
2023-05-11T00:43:06.794Z,5.55
2023-05-11T00:45:33.812Z,5.56
2023-05-11T00:48:00.833Z,5.57
2023-05-11T00:50:27.986Z,5.58
2023-05-11T00:52:55.979Z,5.59
2023-05-11T00:55:23.082Z,5.60
2023-05-11T00:57:50.069Z,5.63
2023-05-11T01:00:17.366Z,5.64
2023-05-11T01:02:45.269Z,5.67
2023-05-11T01:05:12.784Z,5.70
2023-05-11T01:08:00.351Z,5.74
2023-05-11T01:10:56.552Z,5.78
2023-05-11T01:13:28.312Z,5.81
2023-05-11T01:15:59.116Z,5.83
2023-05-11T01:18:39.586Z,5.83
2023-05-11T01:21:10.913Z,5.86
2023-05-11T01:23:45.068Z,5.87
2023-05-11T01:26:36.094Z,5.89
2023-05-11T01:29:30.085Z,5.90
2023-05-11T01:31:57.120Z,5.91
2023-05-11T01:34:30.703Z,5.93
2023-05-11T01:37:10.216Z,5.96
2023-05-11T01:39:40.402Z,6.00
2023-05-11T01:42:09.362Z,6.04
2023-05-11T01:44:38.007Z,6.07
2023-05-11T01:47:04.931Z,6.11
2023-05-11T01:49:33.846Z,6.14
2023-05-11T01:52:02.902Z,6.17
2023-05-11T01:54:30.618Z,6.21
2023-05-11T01:56:57.586Z,6.24
2023-05-11T01:59:25.783Z,6.25
2023-05-11T02:01:53.157Z,6.25
2023-05-11T02:04:20.300Z,6.25
2023-05-11T02:06:48.471Z,6.26
2023-05-11T02:09:18.630Z,6.27
2023-05-11T02:11:46.847Z,6.30
2023-05-11T02:14:15.962Z,6.30
2023-05-11T02:16:43.023Z,6.31
2023-05-11T02:19:10.005Z,6.32
2023-05-11T02:21:37.010Z,6.33
2023-05-11T02:24:05.372Z,6.34
2023-05-11T02:26:32.507Z,6.35
2023-05-11T02:28:59.532Z,6.34
2023-05-11T02:31:29.146Z,6.34
2023-05-11T02:34:00.512Z,6.34
2023-05-11T02:36:28.656Z,6.34
2023-05-11T02:39:02.941Z,6.36
2023-05-11T02:41:30.236Z,6.38
2023-05-11T02:44:01.543Z,6.39
2023-05-11T02:46:32.111Z,6.42
2023-05-11T02:49:01.355Z,6.44
2023-05-11T02:51:38.990Z,6.46
2023-05-11T02:54:10.863Z,6.48
2023-05-11T02:56:40.753Z,6.51
2023-05-11T02:59:09.074Z,6.53
2023-05-11T03:01:36.131Z,6.54
2023-05-11T03:04:06.644Z,6.54
2023-05-11T03:06:33.676Z,6.56
2023-05-11T03:09:01.837Z,6.58
2023-05-11T03:11:29.945Z,6.59
2023-05-11T03:13:56.927Z,6.59
2023-05-11T03:16:23.962Z,6.59
2023-05-11T03:18:51.118Z,6.59
2023-05-11T03:21:18.652Z,6.59
2023-05-11T03:23:46.079Z,6.59
2023-05-11T03:26:14.625Z,6.60
2023-05-11T03:28:41.606Z,6.61
2023-05-11T03:31:08.771Z,6.62
2023-05-11T03:33:35.907Z,6.64
2023-05-11T03:36:03.775Z,6.67
2023-05-11T03:38:31.217Z,6.69
2023-05-11T03:40:58.438Z,6.71
2023-05-11T03:43:27.328Z,6.72
2023-05-11T03:45:55.795Z,6.74
2023-05-11T03:48:22.981Z,6.76
2023-05-11T03:50:51.055Z,6.78
2023-05-11T03:53:18.014Z,6.81
2023-05-11T03:55:45.007Z,6.82
2023-05-11T03:58:11.959Z,6.83
2023-05-11T04:00:40.040Z,6.84
2023-05-11T04:03:09.419Z,6.87
2023-05-11T04:05:37.934Z,6.91
2023-05-11T04:08:07.915Z,6.94
2023-05-11T04:10:35.133Z,7.00
2023-05-11T04:13:02.079Z,7.04
2023-05-11T04:15:30.044Z,7.09
2023-05-11T04:17:56.990Z,7.13
2023-05-11T04:20:23.975Z,7.17
2023-05-11T04:22:51.081Z,7.22
2023-05-11T04:25:18.093Z,7.28
2023-05-11T04:27:45.558Z,7.34
2023-05-11T04:30:15.188Z,7.42
2023-05-11T04:32:42.293Z,7.56
2023-05-11T04:35:10.040Z,7.72
2023-05-11T04:37:38.820Z,7.84
2023-05-11T04:40:08.675Z,7.94
2023-05-11T04:42:40.912Z,8.06
2023-05-11T04:45:14.464Z,8.17
2023-05-11T04:47:42.251Z,8.26
2023-05-11T04:50:12.164Z,8.35
2023-05-11T04:52:39.531Z,8.42
2023-05-11T04:55:07.116Z,8.48
2023-05-11T04:57:34.917Z,8.55
2023-05-11T05:00:04.294Z,8.62
2023-05-11T05:02:33.093Z,8.70
2023-05-11T05:05:00.911Z,8.79
2023-05-11T05:07:27.895Z,8.90
2023-05-11T05:09:56.207Z,9.02
2023-05-11T05:12:24.048Z,9.14
2023-05-11T05:14:50.999Z,9.27
2023-05-11T05:17:18.298Z,9.40
2023-05-11T05:19:45.528Z,9.61
2023-05-11T05:22:12.453Z,9.94
2023-05-11T05:24:39.479Z,10.26
2023-05-11T05:27:06.648Z,10.49
2023-05-11T05:29:33.689Z,10.67
2023-05-11T05:32:00.728Z,10.82
2023-05-11T05:34:28.366Z,10.93
2023-05-11T05:36:55.611Z,11.01
2023-05-11T05:39:22.579Z,11.06
2023-05-11T05:41:49.593Z,11.13
2023-05-11T05:44:16.635Z,11.21
2023-05-11T05:46:44.187Z,11.31
2023-05-11T05:49:11.438Z,11.43
2023-05-11T05:51:38.497Z,11.61
2023-05-11T05:54:06.203Z,11.82
2023-05-11T05:56:35.211Z,12.02
2023-05-11T05:59:02.426Z,12.22
2023-05-11T06:01:29.511Z,12.42
2023-05-11T06:03:56.583Z,12.65
2023-05-11T06:06:24.953Z,12.94
2023-05-11T06:08:51.994Z,13.25
2023-05-11T06:11:19.322Z,13.57
2023-05-11T06:13:46.538Z,13.90
2023-05-11T06:16:13.660Z,14.21
2023-05-11T06:18:40.891Z,14.52
2023-05-11T06:21:07.977Z,14.80
2023-05-11T06:23:35.761Z,15.07
2023-05-11T06:26:02.699Z,15.33
2023-05-11T06:28:31.466Z,15.59
2023-05-11T06:31:01.543Z,15.85
2023-05-11T06:33:30.702Z,16.11
2023-05-11T06:35:58.303Z,16.31
2023-05-11T06:38:26.341Z,16.46
2023-05-11T06:40:53.646Z,16.62
2023-05-11T06:43:20.734Z,16.77
2023-05-11T06:45:48.766Z,16.89
2023-05-11T06:48:15.855Z,17.05
2023-05-11T06:50:42.833Z,17.23
2023-05-11T06:53:13.395Z,17.41
2023-05-11T06:55:40.314Z,17.58
2023-05-11T06:58:07.409Z,17.72
2023-05-11T07:00:34.475Z,17.86
2023-05-11T07:03:01.498Z,17.98
2023-05-11T07:05:28.521Z,18.09
2023-05-11T07:07:55.499Z,18.22
2023-05-11T07:10:23.566Z,18.34
2023-05-11T07:12:50.606Z,18.45
2023-05-11T07:15:17.545Z,18.53
2023-05-11T07:17:47.865Z,18.61
2023-05-11T07:20:15.159Z,18.67
2023-05-11T07:22:42.152Z,18.74
2023-05-11T07:25:10.027Z,18.82
2023-05-11T07:27:37.189Z,18.90
2023-05-11T07:30:04.884Z,18.97
2023-05-11T07:32:32.675Z,19.04
2023-05-11T07:34:59.628Z,19.12
2023-05-11T07:37:26.650Z,19.18
2023-05-11T07:39:54.526Z,19.24
2023-05-11T07:42:21.636Z,19.30
2023-05-11T07:44:48.591Z,19.37
2023-05-11T07:47:17.528Z,19.45
2023-05-11T07:49:44.806Z,19.54
2023-05-11T07:52:11.907Z,19.61
2023-05-11T07:54:40.364Z,19.61
2023-05-11T07:57:08.174Z,19.52
2023-05-11T07:59:35.529Z,19.35
2023-05-11T08:02:04.376Z,19.17
2023-05-11T08:04:32.840Z,18.97
2023-05-11T08:06:59.837Z,18.85
2023-05-11T08:09:27.000Z,18.82
2023-05-11T08:11:56.653Z,18.89
2023-05-11T08:14:25.100Z,18.97
2023-05-11T08:16:52.136Z,18.94
2023-05-11T08:19:19.094Z,18.82
2023-05-11T08:21:47.076Z,18.73
2023-05-11T08:24:14.116Z,18.68
2023-05-11T08:26:41.081Z,18.70
2023-05-11T08:29:08.046Z,18.76
2023-05-11T08:31:35.320Z,18.88
2023-05-11T08:34:13.714Z,19.07
2023-05-11T08:36:45.251Z,19.31
2023-05-11T08:39:12.354Z,19.47
2023-05-11T08:41:39.314Z,19.50
2023-05-11T08:44:06.234Z,19.38
2023-05-11T08:46:36.435Z,19.31
2023-05-11T08:49:03.414Z,19.26
2023-05-11T08:51:30.548Z,19.26
2023-05-11T08:53:59.455Z,19.35
2023-05-11T08:56:27.912Z,19.52
2023-05-11T08:58:56.177Z,19.69
2023-05-11T09:01:23.698Z,19.85
2023-05-11T09:03:50.992Z,20.05
2023-05-11T09:06:18.106Z,20.17
2023-05-11T09:08:45.893Z,20.17
2023-05-11T09:11:13.088Z,20.10
2023-05-11T09:13:40.903Z,20.00
2023-05-11T09:16:19.533Z,19.90
2023-05-11T09:18:55.991Z,19.78
2023-05-11T09:21:23.279Z,19.62
2023-05-11T09:23:50.845Z,19.42
2023-05-11T09:26:20.899Z,19.25
2023-05-11T09:29:02.437Z,19.15
2023-05-11T09:31:43.957Z,19.11
2023-05-11T09:34:21.732Z,19.10
2023-05-11T09:36:50.659Z,19.09
2023-05-11T09:39:35.208Z,19.13
2023-05-11T09:42:14.668Z,19.21
2023-05-11T09:44:41.997Z,19.24
2023-05-11T09:47:19.169Z,19.25
2023-05-11T09:49:47.149Z,19.22
2023-05-11T09:52:18.352Z,19.21
2023-05-11T09:54:52.919Z,19.18
2023-05-11T09:57:27.150Z,19.16
2023-05-11T09:59:54.513Z,19.16
2023-05-11T10:02:26.468Z,19.18
2023-05-11T10:04:55.161Z,19.25
2023-05-11T10:07:25.374Z,19.34
2023-05-11T10:09:53.913Z,19.39
2023-05-11T10:12:22.102Z,19.41
2023-05-11T10:14:51.823Z,19.41
2023-05-11T10:17:19.306Z,19.40
2023-05-11T10:19:49.418Z,19.46
2023-05-11T10:22:18.090Z,19.61
2023-05-11T10:24:45.078Z,19.81
2023-05-11T10:27:13.197Z,19.97
2023-05-11T10:29:40.455Z,20.06
2023-05-11T10:32:08.008Z,20.04
2023-05-11T10:34:35.454Z,19.92
2023-05-11T10:37:03.337Z,19.79
2023-05-11T10:39:30.410Z,19.65
2023-05-11T10:42:33.586Z,19.51
2023-05-11T10:45:07.080Z,19.36
2023-05-11T10:48:12.453Z,19.26
2023-05-11T10:51:19.904Z,19.15
2023-05-11T10:53:59.711Z,19.09
2023-05-11T10:56:26.661Z,19.05
2023-05-11T10:59:05.997Z,19.09
2023-05-11T11:01:40.207Z,19.26
2023-05-11T11:04:11.208Z,19.49
2023-05-11T11:06:42.974Z,19.76
2023-05-11T11:09:14.717Z,20.03
2023-05-11T11:11:46.503Z,20.27
2023-05-11T11:14:14.710Z,20.50
2023-05-11T11:16:42.160Z,20.70
2023-05-11T11:19:32.300Z,20.84
2023-05-11T11:22:02.362Z,20.91
2023-05-11T11:24:49.800Z,20.91
2023-05-11T11:27:16.917Z,20.85
2023-05-11T11:30:17.691Z,20.81
2023-05-11T11:32:46.387Z,20.86
2023-05-11T11:35:35.516Z,20.98
2023-05-11T11:38:03.255Z,21.13
2023-05-11T11:40:50.529Z,21.24
2023-05-11T11:43:21.205Z,21.34
2023-05-11T11:46:01.739Z,21.55
2023-05-11T11:48:37.926Z,21.81
2023-05-11T11:51:07.459Z,22.00
2023-05-11T11:53:37.978Z,22.05
2023-05-11T11:56:06.062Z,21.91
2023-05-11T11:58:53.272Z,21.76
2023-05-11T12:01:22.150Z,21.59
2023-05-11T12:04:24.752Z,21.41
2023-05-11T12:06:57.493Z,21.17
2023-05-11T12:09:26.726Z,20.97
2023-05-11T12:11:54.066Z,20.79
2023-05-11T12:14:21.858Z,20.64
2023-05-11T12:17:05.931Z,20.52
2023-05-11T12:19:32.996Z,20.43
2023-05-11T12:22:02.153Z,20.36
2023-05-11T12:24:29.340Z,20.32
2023-05-11T12:26:57.602Z,20.28
2023-05-11T12:29:24.893Z,20.23
2023-05-11T12:31:52.956Z,20.18
2023-05-11T12:34:24.314Z,20.11
2023-05-11T12:36:53.050Z,20.03
2023-05-11T12:39:24.901Z,19.99
2023-05-11T12:41:53.542Z,19.96
2023-05-11T12:44:21.726Z,19.98
2023-05-11T12:46:49.171Z,20.04
2023-05-11T12:51:52.750Z,20.36
2023-05-11T12:54:48.272Z,20.54
2023-05-11T12:57:33.788Z,20.79
2023-05-11T13:00:14.132Z,21.08
2023-05-11T13:02:54.842Z,21.58
2023-05-11T13:05:26.799Z,22.21
2023-05-11T13:08:00.997Z,22.93
2023-05-11T13:10:28.033Z,23.67
2023-05-11T13:12:55.386Z,24.36
2023-05-11T13:15:24.580Z,25.02
2023-05-11T13:17:59.269Z,25.50
2023-05-11T13:20:28.105Z,25.64
2023-05-11T13:23:05.721Z,25.57
2023-05-11T13:25:32.987Z,25.32
2023-05-11T13:28:01.946Z,24.97
2023-05-11T13:30:28.975Z,24.60
2023-05-11T13:32:56.122Z,24.24
2023-05-11T13:35:23.242Z,23.85
2023-05-11T13:37:50.204Z,23.59
2023-05-11T13:40:17.213Z,23.55
2023-05-11T13:42:44.125Z,23.49
2023-05-11T13:45:12.259Z,23.39
2023-05-11T13:47:39.322Z,23.24
2023-05-11T13:50:07.370Z,23.04
2023-05-11T13:52:34.365Z,22.81
2023-05-11T13:55:01.414Z,22.57
2023-05-11T13:57:28.344Z,22.34
2023-05-11T13:59:55.466Z,22.14
2023-05-11T14:02:22.668Z,21.97
2023-05-11T14:04:49.739Z,22.07
2023-05-11T14:07:16.956Z,22.43
2023-05-11T14:09:44.028Z,22.96
2023-05-11T14:12:11.146Z,23.27
2023-05-11T14:14:38.143Z,23.33
2023-05-11T14:17:06.064Z,23.24
2023-05-11T14:19:33.191Z,23.06
2023-05-11T14:22:01.259Z,22.84
2023-05-11T14:24:28.416Z,22.66
2023-05-11T14:26:55.381Z,22.59
2023-05-11T14:29:22.442Z,22.48
2023-05-11T14:31:50.078Z,22.38
2023-05-11T14:34:17.077Z,22.28
2023-05-11T14:36:44.098Z,22.21
2023-05-11T14:39:11.024Z,22.13
2023-05-11T14:41:38.046Z,21.99
2023-05-11T14:44:05.177Z,21.88
2023-05-11T14:46:32.174Z,22.02
2023-05-11T14:48:59.116Z,22.16
2023-05-11T14:51:26.118Z,22.32
2023-05-11T14:53:53.056Z,22.69
2023-05-11T14:56:20.342Z,23.03
2023-05-11T14:58:47.286Z,23.53
2023-05-11T15:01:14.285Z,24.00
2023-05-11T15:03:41.615Z,24.32
2023-05-11T15:06:08.776Z,24.38
2023-05-11T15:08:36.541Z,24.49
2023-05-11T15:11:03.690Z,24.74
2023-05-11T15:13:30.999Z,25.06
2023-05-11T15:15:58.034Z,25.40
2023-05-11T15:18:25.237Z,25.66
2023-05-11T15:20:52.221Z,25.86
2023-05-11T15:23:19.369Z,26.03
2023-05-11T15:25:47.403Z,26.17
2023-05-11T15:28:14.920Z,26.07
2023-05-11T15:30:42.366Z,25.68
2023-05-11T15:33:10.127Z,25.11
2023-05-11T15:35:37.929Z,24.49
2023-05-11T15:38:05.198Z,23.89
2023-05-11T15:40:32.647Z,23.30
2023-05-11T15:43:00.347Z,22.76
2023-05-11T15:45:27.819Z,22.28
2023-05-11T15:47:54.954Z,21.88
2023-05-11T15:50:22.581Z,21.52
2023-05-11T15:52:50.582Z,21.15
2023-05-11T15:55:18.214Z,20.78
2023-05-11T15:57:46.365Z,20.48
2023-05-11T16:00:14.146Z,20.23
2023-05-11T16:02:42.861Z,19.97
2023-05-11T16:05:09.884Z,19.74
2023-05-11T16:07:36.852Z,19.55
2023-05-11T16:10:03.989Z,19.40
2023-05-11T16:12:31.105Z,19.25
2023-05-11T16:14:58.065Z,19.11
2023-05-11T16:17:25.640Z,19.00
2023-05-11T16:19:53.027Z,18.89
2023-05-11T16:22:20.321Z,18.76
2023-05-11T16:24:47.340Z,18.63
2023-05-11T16:27:14.263Z,18.52
2023-05-11T16:29:41.291Z,18.42
2023-05-11T16:32:08.316Z,18.31
2023-05-11T16:34:35.354Z,18.24
2023-05-11T16:37:02.604Z,18.15
2023-05-11T16:39:29.577Z,18.05
2023-05-11T16:41:56.563Z,17.97
2023-05-11T16:44:24.008Z,17.88
2023-05-11T16:46:52.582Z,17.79
2023-05-11T16:49:20.230Z,17.70
2023-05-11T16:51:48.097Z,17.62
2023-05-11T16:54:15.083Z,17.52
2023-05-11T16:56:42.096Z,17.43
2023-05-11T16:59:10.773Z,17.34
2023-05-11T17:01:38.191Z,17.27
2023-05-11T17:04:05.378Z,17.20
2023-05-11T17:06:33.036Z,17.11
2023-05-11T17:09:00.362Z,17.01
2023-05-11T17:11:27.842Z,16.91
2023-05-11T17:13:54.959Z,16.84
2023-05-11T17:16:21.975Z,16.76
2023-05-11T17:18:49.063Z,16.69
2023-05-11T17:21:17.402Z,16.60
2023-05-11T17:23:45.644Z,16.50
2023-05-11T17:26:12.661Z,16.35
2023-05-11T17:28:39.693Z,16.20
2023-05-11T17:31:14.677Z,16.04
2023-05-11T17:33:42.085Z,15.91
2023-05-11T17:36:09.759Z,15.83
2023-05-11T17:58:32.623Z,14.94
2023-05-11T18:01:09.413Z,14.77
2023-05-11T18:03:42.247Z,14.61
2023-05-11T18:06:11.926Z,14.46
2023-05-11T18:08:39.311Z,14.26
2023-05-11T18:11:12.849Z,14.08
2023-05-11T18:13:40.486Z,13.92
2023-05-11T18:16:11.987Z,13.75
2023-05-11T18:18:42.038Z,13.60
2023-05-11T18:21:15.403Z,13.47
2023-05-11T18:23:45.357Z,13.34
2023-05-11T18:26:16.448Z,13.27
2023-05-11T18:28:46.268Z,13.15
2023-05-11T18:31:18.977Z,12.99
2023-05-11T18:33:46.917Z,12.90
2023-05-11T18:36:17.699Z,12.86
2023-05-11T18:38:49.112Z,12.85
2023-05-11T18:41:22.855Z,12.81
2023-05-11T18:43:54.835Z,12.64
2023-05-11T18:46:22.935Z,12.44
2023-05-11T18:48:55.719Z,12.30
2023-05-11T18:51:26.226Z,12.19
2023-05-11T18:53:53.743Z,12.11
2023-05-11T18:56:24.332Z,12.04
2023-05-11T18:58:54.332Z,11.96
2023-05-11T19:01:46.634Z,11.91
2023-05-11T19:04:17.757Z,11.85
2023-05-11T19:06:46.226Z,11.76
2023-05-11T19:09:29.652Z,11.68
2023-05-11T19:12:08.509Z,11.66
2023-05-11T19:22:56.825Z,11.60
2023-05-11T19:25:24.444Z,11.56
2023-05-11T19:33:27.500Z,11.41
2023-05-11T19:36:20.538Z,11.33
2023-05-11T19:41:55.718Z,11.20
2023-05-11T19:51:28.238Z,11.12
2023-05-11T19:54:30.089Z,11.12
2023-05-11T19:57:18.471Z,11.13
2023-05-11T20:00:41.702Z,11.10
2023-05-11T20:03:52.573Z,10.97
2023-05-11T20:08:33.296Z,10.74
2023-05-11T20:11:32.259Z,10.51
2023-05-11T20:14:48.606Z,10.37
2023-05-11T20:18:05.772Z,10.32
2023-05-11T20:21:03.117Z,10.33
2023-05-11T20:24:34.325Z,10.32
2023-05-11T20:28:12.791Z,10.25
2023-05-11T20:31:40.927Z,10.20
2023-05-11T20:34:49.928Z,10.17
2023-05-11T20:38:27.136Z,10.10
2023-05-11T20:41:51.374Z,10.03
2023-05-11T20:45:05.386Z,9.93
2023-05-11T20:48:53.410Z,9.91
2023-05-11T20:52:41.828Z,9.87
2023-05-11T20:55:22.288Z,9.78
2023-05-11T21:00:03.535Z,9.75
2023-05-11T21:02:33.508Z,9.74
2023-05-11T21:05:37.530Z,9.75
2023-05-11T21:08:28.383Z,9.77
2023-05-11T21:11:59.730Z,9.77
2023-05-11T21:15:17.750Z,9.76
2023-05-11T21:18:35.665Z,9.71
2023-05-11T21:21:29.173Z,9.68
2023-05-11T21:24:48.633Z,9.67
2023-05-11T21:27:49.783Z,9.65
2023-05-11T21:31:25.130Z,9.66
2023-05-11T21:34:53.221Z,9.70
2023-05-11T21:38:26.861Z,9.72
2023-05-11T21:41:53.758Z,9.66
2023-05-11T21:45:13.352Z,9.59
2023-05-11T21:49:01.588Z,9.55
2023-05-11T21:52:48.653Z,9.55
2023-05-11T21:56:33.287Z,9.55
2023-05-11T22:00:01.008Z,9.55
2023-05-11T22:03:36.816Z,9.56
2023-05-11T22:07:17.968Z,9.58
2023-05-11T22:11:05.094Z,9.60
2023-05-11T22:14:53.389Z,9.60
2023-05-11T22:18:18.864Z,9.54
2023-05-11T22:22:07.016Z,9.52
2023-05-11T22:25:45.375Z,9.54
2023-05-11T22:29:32.268Z,9.59
2023-05-11T22:33:20.311Z,9.64
2023-05-11T22:36:58.513Z,9.71
2023-05-11T22:40:20.553Z,9.74
2023-05-11T22:43:58.838Z,9.68
2023-05-11T22:47:06.513Z,9.66
2023-05-11T22:50:54.868Z,9.65
2023-05-11T22:54:25.679Z,9.67
2023-05-11T22:58:13.772Z,9.67
2023-05-11T23:02:01.690Z,9.65
2023-05-11T23:05:32.628Z,9.61
2023-05-11T23:08:36.572Z,9.51
2023-05-11T23:12:04.503Z,9.45
2023-05-11T23:15:34.749Z,9.41
2023-05-11T23:18:55.827Z,9.41
2023-05-11T23:22:22.946Z,9.39
2023-05-11T23:25:58.271Z,9.38
2023-05-11T23:29:28.509Z,9.37
2023-05-11T23:33:09.411Z,9.35
2023-05-11T23:36:48.591Z,9.31
2023-05-11T23:40:36.611Z,9.28
2023-05-11T23:44:17.390Z,9.24
2023-05-11T23:47:55.317Z,9.24
2023-05-11T23:51:43.553Z,9.23
2023-05-11T23:55:24.578Z,9.13
2023-05-11T23:59:12.519Z,8.99
